Time;durP1;ratioP1;P1;durP2;ratioP2;P2;SDS_P1;SDS_P2;PMS_P1;PMS_P2;Temp;Humidity;BMP_temperature;BMP_pressure;BME280_temperature;BME280_humidity;BME280_pressure;Samples;Min_cycle;Max_cycle;Signal;HPM_P1;HPM_P2
2021/11/07 00:00:25;;;;;;;10.25;6.42;;;;;;;8.25;83.52;100877.88;1713623;83;21032;-74
2021/11/07 00:05:40;;;;;;;13.78;6.83;;;;;;;8.15;77.58;100874.54;1693823;84;21125;-72
2021/11/07 00:10:47;;;;;;;11.65;7.45;;;;;;;7.61;81.82;100879.66;1693460;84;21089;-74
2021/11/07 00:15:43;;;;;;;15.45;7.25;;;;;;;7.19;82.49;100879.29;1674771;84;21529;-73
2021/11/07 00:18:17;;;;;;;12.30;7.10;;;;;;;7.03;81.62;100875.11;1694169;84;21084;-74
2021/11/07 00:20:49;;;;;;;14.70;8.38;;;;;;;6.88;81.47;100871.77;1694094;83;21995;-72
2021/11/07 00:23:35;;;;;;;14.73;7.42;;;;;;;6.74;81.84;100869.73;1692815;84;21180;-73
2021/11/07 00:25:55;;;;;;;13.05;7.78;;;;;;;6.61;82.74;100864.18;1692029;84;21680;-71
2021/11/07 00:28:33;;;;;;;12.82;7.80;;;;;;;6.51;83.15;100866.88;1694069;83;21646;-72
2021/11/07 00:31:18;;;;;;;10.93;6.50;;;;;;;6.42;84.30;100868.27;1693454;83;21706;-73
2021/11/07 00:38:31;;;;;;;11.10;6.70;;;;;;;6.30;88.45;100864.41;1694066;84;22199;-73
2021/11/07 00:43:37;;;;;;;12.10;7.05;;;;;;;6.19;87.50;100856.67;1693866;84;21617;-72
2021/11/07 00:54:07;;;;;;;13.65;7.67;;;;;;;6.06;85.98;100842.80;1693753;84;21139;-71
2021/11/07 00:59:08;;;;;;;13.65;7.08;;;;;;;6.05;87.59;100835.85;1693796;84;21663;-71
2021/11/07 01:01:34;;;;;;;14.23;7.87;;;;;;;6.03;88.10;100840.22;1675775;84;21037;-72
2021/11/07 01:04:03;;;;;;;15.00;8.28;;;;;;;6.02;88.55;100829.76;1665930;84;21517;-71
2021/11/07 01:06:31;;;;;;;14.43;8.63;;;;;;;6.01;88.85;100830.20;1646994;85;22081;-72
2021/11/07 01:08:57;;;;;;;17.55;8.18;;;;;;;5.99;89.06;100820.19;1665932;84;21061;-74
2021/11/07 01:11:25;;;;;;;15.70;9.03;;;;;;;5.99;89.59;100825.42;1665800;84;21544;-72
2021/11/07 01:13:51;;;;;;;16.02;7.42;;;;;;;5.97;91.77;100818.03;1666193;84;21100;-72
2021/11/07 01:16:19;;;;;;;15.03;8.03;;;;;;;5.97;89.72;100819.33;1665564;86;21163;-71
2021/11/07 01:18:46;;;;;;;14.83;7.72;;;;;;;5.97;88.63;100825.87;1665806;86;21767;-71
2021/11/07 01:21:14;;;;;;;12.18;7.35;;;;;;;5.95;88.31;100821.53;1666020;86;21104;-71
2021/11/07 01:23:47;;;;;;;16.42;7.72;;;;;;;5.97;89.15;100826.31;1665862;86;21100;-72
2021/11/07 01:28:02;;;;;;;16.95;7.53;;;;;;;6.00;89.52;100817.99;1795820;79;28231;-71
2021/11/07 01:30:34;;;;;;;16.45;7.67;;;;;;;5.95;88.93;100818.47;1751690;81;21084;-72
2021/11/07 01:33:06;;;;;;;14.90;7.90;;;;;;;5.95;88.68;100812.38;1747439;82;21141;-72
2021/11/07 01:35:35;;;;;;;14.98;7.42;;;;;;;5.95;88.21;100805.40;1745770;82;21488;-71
2021/11/07 01:40:41;;;;;;;14.05;7.05;;;;;;;5.91;88.20;100807.57;1747342;82;21041;-72
2021/11/07 01:43:05;;;;;;;12.60;6.90;;;;;;;5.92;88.84;100805.40;1747430;82;21100;-71
2021/11/07 01:45:40;;;;;;;14.03;7.10;;;;;;;5.92;89.19;100805.40;1747596;82;21134;-71
2021/11/07 01:48:17;;;;;;;10.82;5.62;;;;;;;5.93;89.65;100805.81;1747706;81;21545;-73
2021/11/07 01:50:51;;;;;;;10.45;6.28;;;;;;;5.94;90.24;100797.55;1747659;82;21112;-73
2021/11/07 01:53:21;;;;;;;13.22;7.25;;;;;;;5.96;90.56;100806.26;1747356;82;21100;-72
2021/11/07 01:55:46;;;;;;;12.98;7.22;;;;;;;5.95;91.32;100801.48;1747447;81;21056;-73
2021/11/07 01:58:13;;;;;;;13.78;8.03;;;;;;;5.91;91.30;100806.26;1747659;82;21066;-73
2021/11/07 02:00:40;;;;;;;13.25;6.50;;;;;;;5.90;91.96;100799.31;1747412;82;21046;-72
2021/11/07 02:03:07;;;;;;;16.50;7.92;;;;;;;5.86;90.94;100800.20;1747785;82;21057;-71
2021/11/07 02:05:35;;;;;;;14.03;7.72;;;;;;;5.79;90.19;100796.77;1719544;82;21088;-71
2021/11/07 02:08:03;;;;;;;15.23;7.47;;;;;;;5.73;90.68;100802.05;1717625;83;21052;-71
2021/11/07 02:10:30;;;;;;;13.50;7.75;;;;;;;5.66;90.85;100799.91;1717596;83;21123;-72
2021/11/07 02:12:56;;;;;;;14.15;7.47;;;;;;;5.59;90.76;100806.05;1718084;83;21171;-71
2021/11/07 02:15:23;;;;;;;16.97;8.10;;;;;;;5.54;91.02;100802.58;1718009;83;21097;-72
2021/11/07 02:17:49;;;;;;;13.85;7.78;;;;;;;5.49;91.58;100807.41;1717862;83;21014;-72
2021/11/07 02:20:29;;;;;;;14.75;7.40;;;;;;;5.45;92.28;100806.55;1717642;83;21100;-73
2021/11/07 02:22:54;;;;;;;13.25;6.20;;;;;;;5.41;92.84;100812.69;1718312;82;21140;-72
2021/11/07 02:25:20;;;;;;;14.20;7.60;;;;;;;5.36;93.30;100809.20;1717691;83;21121;-71
2021/11/07 02:27:47;;;;;;;14.45;8.53;;;;;;;5.32;93.62;100816.64;1718106;83;21010;-71
2021/11/07 02:30:15;;;;;;;15.35;9.08;;;;;;;5.27;93.34;100807.52;1718273;83;21620;-71
2021/11/07 02:32:44;;;;;;;11.93;5.87;;;;;;;5.24;93.27;100807.52;1718613;83;21105;-71
2021/11/07 02:35:11;;;;;;;13.60;7.95;;;;;;;5.18;93.51;100803.20;1718428;83;21120;-70
2021/11/07 02:37:39;;;;;;;17.80;7.80;;;;;;;5.14;94.69;100808.45;1718182;83;21030;-70
2021/11/07 02:40:08;;;;;;;14.95;7.97;;;;;;;5.11;94.61;100815.86;1718180;83;21061;-71
2021/11/07 02:42:35;;;;;;;16.70;8.38;;;;;;;5.07;96.13;100811.52;1721951;82;21074;-71
2021/11/07 02:45:05;;;;;;;16.60;8.90;;;;;;;5.01;95.51;100811.08;1747781;82;21041;-70
2021/11/07 02:47:32;;;;;;;18.40;9.18;;;;;;;4.95;95.97;100812.87;1747859;82;21541;-70
2021/11/07 02:49:59;;;;;;;17.10;9.28;;;;;;;4.88;95.57;100805.48;1744759;82;21040;-70
2021/11/07 02:52:25;;;;;;;15.18;9.20;;;;;;;4.82;96.46;100809.41;1742307;82;21069;-70
2021/11/07 02:54:51;;;;;;;20.50;10.35;;;;;;;4.78;96.68;100805.92;1748058;82;21037;-71
2021/11/07 02:57:20;;;;;;;21.65;11.30;;;;;;;4.72;96.07;100805.10;1752318;82;20951;-70
2021/11/07 02:59:55;;;;;;;24.37;11.63;;;;;;;4.66;96.72;100800.75;1749221;82;21385;-70
2021/11/07 03:02:17;;;;;;;18.42;8.55;;;;;;;4.62;97.13;100799.91;1747088;82;21022;-70
2021/11/07 03:04:43;;;;;;;18.12;8.85;;;;;;;4.59;96.85;100796.41;1730565;82;21050;-69
2021/11/07 03:07:10;;;;;;;13.30;7.10;;;;;;;4.55;97.47;100795.98;1717819;83;21093;-69
2021/11/07 03:09:38;;;;;;;11.93;6.83;;;;;;;4.51;97.66;100797.75;1718116;83;21061;-69
2021/11/07 03:12:06;;;;;;;19.80;10.85;;;;;;;4.47;97.60;100792.53;1730512;82;21141;-73
2021/11/07 03:14:42;;;;;;;21.33;10.30;;;;;;;4.42;98.13;100786.02;1747632;82;21089;-71
2021/11/07 03:17:10;;;;;;;20.37;8.45;;;;;;;4.36;98.35;100785.58;1747617;82;21017;-72
2021/11/07 03:19:37;;;;;;;17.40;8.45;;;;;;;4.31;98.89;100782.55;1748088;82;21592;-73
2021/11/07 03:22:11;;;;;;;17.50;9.45;;;;;;;4.28;99.91;100786.45;1747866;82;21092;-73
2021/11/07 03:24:40;;;;;;;19.50;10.28;;;;;;;4.22;100.00;100796.45;1747735;82;21583;-72
2021/11/07 03:27:13;;;;;;;22.35;10.95;;;;;;;4.17;100.00;100798.20;1747696;81;21604;-73
2021/11/07 03:29:38;;;;;;;28.90;12.75;;;;;;;4.11;100.00;100796.89;1747399;82;21600;-73
2021/11/07 03:32:14;;;;;;;28.38;13.90;;;;;;;4.04;100.00;100798.63;1747720;82;21065;-73
2021/11/07 03:34:43;;;;;;;32.33;14.18;;;;;;;3.99;100.00;100799.92;1745930;82;22027;-72
2021/11/07 03:37:08;;;;;;;31.95;15.00;;;;;;;3.93;100.00;100794.73;1745896;82;21026;-72
2021/11/07 03:39:36;;;;;;;25.35;13.50;;;;;;;3.76;100.00;100778.20;1747433;82;21065;-72
2021/11/07 03:42:06;;;;;;;29.00;13.22;;;;;;;3.81;100.00;100798.60;1748101;82;21517;-72
2021/11/07 03:44:33;;;;;;;23.22;11.73;;;;;;;3.77;100.00;100795.55;1747919;82;22161;-72
2021/11/07 03:47:01;;;;;;;25.70;14.13;;;;;;;3.73;100.00;100792.09;1748016;82;20994;-72
2021/11/07 03:49:28;;;;;;;27.15;13.65;;;;;;;3.68;100.00;100783.41;1747941;82;21152;-71
2021/11/07 03:51:55;;;;;;;24.87;12.60;;;;;;;3.64;100.00;100783.39;1747863;82;21056;-72
2021/11/07 03:54:24;;;;;;;26.77;12.68;;;;;;;3.58;100.00;100787.70;1747696;82;20998;-74
2021/11/07 03:56:50;;;;;;;20.97;10.90;;;;;;;3.53;100.00;100785.97;1747808;82;21084;-73
2021/11/07 03:59:17;;;;;;;27.22;12.30;;;;;;;3.45;100.00;100785.96;1747615;82;21037;-73
2021/11/07 04:01:44;;;;;;;21.80;12.20;;;;;;;3.45;100.00;100787.67;1747542;82;21296;-72
2021/11/07 04:04:11;;;;;;;22.07;10.98;;;;;;;3.43;100.00;100792.90;1748191;82;21014;-72
2021/11/07 04:06:38;;;;;;;18.77;10.63;;;;;;;3.42;100.00;100791.14;1747731;82;21518;-73
2021/11/07 04:09:05;;;;;;;19.87;10.15;;;;;;;3.40;100.00;100787.66;1748216;82;21105;-73
2021/11/07 04:11:31;;;;;;;18.20;10.58;;;;;;;3.40;100.00;100788.09;1747605;82;21025;-72
2021/11/07 04:13:58;;;;;;;19.40;10.85;;;;;;;3.39;100.00;100785.94;1747920;82;21934;-74
2021/11/07 04:16:24;;;;;;;15.68;9.63;;;;;;;3.38;100.00;100782.87;1747709;82;21034;-71
2021/11/07 04:18:51;;;;;;;20.68;10.50;;;;;;;3.38;100.00;100793.29;1747827;82;21049;-73
2021/11/07 04:21:20;;;;;;;22.87;10.55;;;;;;;3.36;100.00;100784.63;1717846;83;21632;-68
2021/11/07 04:23:47;;;;;;;17.32;10.23;;;;;;;3.36;100.00;100782.89;1728136;82;21045;-70
2021/11/07 04:26:14;;;;;;;17.48;9.83;;;;;;;3.35;100.00;100777.23;1734859;82;21694;-70
2021/11/07 04:28:40;;;;;;;19.52;9.43;;;;;;;3.35;100.00;100786.78;1706971;82;21037;-73
2021/11/07 04:31:06;;;;;;;15.00;9.58;;;;;;;3.34;100.00;100778.55;1720202;82;21069;-74
2021/11/07 04:33:33;;;;;;;13.90;8.95;;;;;;;3.33;100.00;100775.48;1722269;82;21235;-73
2021/11/07 04:36:00;;;;;;;15.40;9.55;;;;;;;3.32;100.00;100773.77;1732593;82;21074;-73
2021/11/07 04:38:29;;;;;;;15.60;8.60;;;;;;;3.32;100.00;100781.58;1732404;82;21145;-73
2021/11/07 04:40:56;;;;;;;17.42;9.95;;;;;;;3.29;100.00;100773.73;1732162;82;21078;-73
2021/11/07 04:43:22;;;;;;;18.45;9.50;;;;;;;3.27;100.00;100776.80;1669431;85;21584;-73
2021/11/07 04:45:50;;;;;;;16.23;9.70;;;;;;;3.25;100.00;100783.29;1649538;86;21030;-73
2021/11/07 04:48:19;;;;;;;17.05;9.88;;;;;;;3.22;100.00;100780.69;1732565;82;21099;-73
2021/11/07 04:50:47;;;;;;;18.92;10.25;;;;;;;3.20;100.00;100768.50;1733045;82;21137;-74
2021/11/07 04:53:20;;;;;;;16.97;9.35;;;;;;;3.18;100.00;100774.16;1669678;85;21042;-74
2021/11/07 04:55:44;;;;;;;19.32;10.63;;;;;;;3.14;100.00;100782.37;1730881;82;21097;-73
2021/11/07 04:58:11;;;;;;;24.32;11.38;;;;;;;3.11;100.00;100784.54;1731920;82;21113;-72
2021/11/07 05:00:38;;;;;;;23.85;11.75;;;;;;;3.08;100.00;100779.34;1668342;86;21662;-71
2021/11/07 05:03:05;;;;;;;26.25;14.35;;;;;;;3.07;100.00;100786.69;1731452;82;21120;-72
2021/11/07 05:05:32;;;;;;;26.20;14.38;;;;;;;3.07;100.00;100785.38;1668714;85;21604;-71
2021/11/07 05:07:59;;;;;;;28.83;16.82;;;;;;;3.07;100.00;100778.88;1669233;85;21118;-71
2021/11/07 05:10:25;;;;;;;32.08;17.85;;;;;;;3.11;100.00;100794.95;1729193;82;21033;-71
2021/11/07 05:12:53;;;;;;;29.60;14.68;;;;;;;3.13;100.00;100791.92;1718884;82;21061;-75
2021/11/07 05:15:20;;;;;;;24.90;13.50;;;;;;;3.15;100.00;100792.80;1704677;82;21552;-72
2021/11/07 05:17:47;;;;;;;21.37;11.20;;;;;;;3.18;100.00;100800.19;1709120;82;21002;-72
2021/11/07 05:20:13;;;;;;;22.07;11.50;;;;;;;3.20;100.00;100794.53;1722189;82;21274;-74
2021/11/07 05:22:41;;;;;;;21.55;11.22;;;;;;;3.21;100.00;100801.49;1705563;84;21137;-73
2021/11/07 05:25:11;;;;;;;23.50;12.55;;;;;;;3.21;100.00;100802.80;1706172;82;21049;-73
2021/11/07 05:27:37;;;;;;;24.02;12.95;;;;;;;3.20;100.00;100798.03;1734079;81;21743;-74
2021/11/07 05:30:07;;;;;;;20.52;10.98;;;;;;;3.21;100.00;100808.00;1730219;82;21113;-73
2021/11/07 05:32:35;;;;;;;22.82;11.68;;;;;;;3.22;100.00;100803.22;1718330;82;21025;-73
2021/11/07 05:35:03;;;;;;;21.87;12.10;;;;;;;3.23;100.00;100804.98;1730053;82;21062;-73
2021/11/07 05:37:30;;;;;;;25.75;12.45;;;;;;;3.24;100.00;100807.56;1708896;82;21124;-74
2021/11/07 05:39:56;;;;;;;26.57;13.53;;;;;;;3.26;100.00;100813.65;1698498;84;21227;-73
2021/11/07 05:42:23;;;;;;;29.35;13.20;;;;;;;3.27;100.00;100818.01;1698812;84;21572;-75
2021/11/07 05:44:49;;;;;;;26.70;12.93;;;;;;;3.26;100.00;100816.25;1721611;82;21062;-74
2021/11/07 05:47:17;;;;;;;29.90;12.75;;;;;;;3.29;100.00;100816.28;1733871;82;21062;-74
2021/11/07 05:49:44;;;;;;;25.27;13.25;;;;;;;3.32;100.00;100814.13;1733626;82;21113;-74
2021/11/07 05:52:10;;;;;;;26.40;12.53;;;;;;;3.35;100.00;100822.80;1733929;82;21526;-74
2021/11/07 05:54:37;;;;;;;24.98;13.00;;;;;;;3.41;100.00;100820.66;1733764;82;21011;-74
2021/11/07 05:57:04;;;;;;;21.48;12.23;;;;;;;3.44;100.00;100823.27;1734008;81;21086;-74
2021/11/07 05:59:30;;;;;;;23.27;12.53;;;;;;;3.47;100.00;100816.75;1733687;82;21183;-75
2021/11/07 06:01:57;;;;;;;22.50;11.97;;;;;;;3.51;100.00;100814.60;1733916;82;21062;-74
2021/11/07 06:04:24;;;;;;;30.82;13.50;;;;;;;3.56;100.00;100815.48;1731030;82;21180;-74
2021/11/07 06:06:50;;;;;;;22.67;12.07;;;;;;;3.80;100.00;100813.81;1733071;82;21580;-74
2021/11/07 06:09:17;;;;;;;23.42;11.88;;;;;;;4.38;100.00;100805.14;1707894;82;21070;-74
2021/11/07 06:11:44;;;;;;;20.57;11.93;;;;;;;5.07;100.00;100798.91;1703458;84;21081;-73
2021/11/07 06:14:11;;;;;;;23.60;11.57;;;;;;;5.81;99.96;100792.84;1703558;84;21061;-74
2021/11/07 06:16:37;;;;;;;24.45;11.70;;;;;;;6.59;97.02;100786.12;1704871;84;21157;-73
2021/11/07 06:19:05;;;;;;;20.55;10.82;;;;;;;7.34;93.96;100776.94;1704305;83;21085;-73
2021/11/07 06:21:33;;;;;;;22.60;11.05;;;;;;;8.11;91.35;100783.64;1712514;82;21075;-75
2021/11/07 06:24:00;;;;;;;19.92;10.32;;;;;;;8.85;85.69;100781.50;1718483;82;21078;-74
2021/11/07 06:26:26;;;;;;;19.00;9.83;;;;;;;9.44;79.26;100784.20;1712191;82;21045;-73
2021/11/07 06:28:53;;;;;;;19.87;9.55;;;;;;;9.87;76.80;100781.92;1704590;83;21847;-74
2021/11/07 06:31:23;;;;;;;15.98;9.60;;;;;;;10.33;73.82;100776.02;1704353;84;21057;-74
2021/11/07 06:33:50;;;;;;;17.12;10.58;;;;;;;10.71;70.57;100773.66;1704443;84;21050;-76
2021/11/07 06:36:17;;;;;;;15.28;9.13;;;;;;;11.15;69.57;100776.41;1704092;84;21097;-73
2021/11/07 06:38:44;;;;;;;14.98;8.68;;;;;;;11.52;64.93;100776.17;1721997;82;21759;-74
2021/11/07 06:41:11;;;;;;;18.50;9.60;;;;;;;11.84;64.37;100784.86;1714765;82;21137;-74
2021/11/07 06:43:38;;;;;;;15.48;9.13;;;;;;;12.14;60.32;100786.99;1712433;82;21588;-74
2021/11/07 06:46:05;;;;;;;14.28;9.43;;;;;;;12.25;59.39;100779.58;1704472;82;21069;-74
2021/11/07 06:48:31;;;;;;;13.70;9.00;;;;;;;12.46;56.31;100774.48;1715676;82;21026;-74
2021/11/07 06:50:58;;;;;;;15.08;8.90;;;;;;;12.74;56.18;100771.27;1721025;82;21082;-75
2021/11/07 06:53:27;;;;;;;25.95;16.70;;;;;;;13.18;54.80;100770.13;1712459;82;21152;-75
2021/11/07 06:55:54;;;;;;;13.58;8.83;;;;;;;13.48;53.29;100767.26;1708411;82;21089;-77
2021/11/07 06:58:21;;;;;;;14.05;8.43;;;;;;;13.61;52.70;100757.89;1712336;82;21065;-73
2021/11/07 07:00:47;;;;;;;13.48;8.00;;;;;;;13.67;51.09;100755.95;1704586;82;22097;-74
2021/11/07 07:03:14;;;;;;;13.88;8.15;;;;;;;13.94;50.77;100758.80;1704573;82;21101;-73
2021/11/07 07:05:41;;;;;;;15.70;8.55;;;;;;;14.21;51.03;100758.09;1708184;82;21482;-74
2021/11/07 07:08:12;;;;;;;12.70;8.30;;;;;;;14.51;49.49;100762.16;1704480;82;21568;-73
2021/11/07 07:10:46;;;;;;;13.20;8.08;;;;;;;14.69;48.94;100751.64;1711902;81;21536;-75
2021/11/07 07:16:03;;;;;;;11.60;7.80;;;;;;;14.89;45.94;100756.54;1709690;82;21019;-77
2021/11/07 07:18:36;;;;;;;14.30;8.40;;;;;;;15.17;45.72;100749.50;1708147;82;21552;-75
2021/11/07 07:21:14;;;;;;;17.12;8.50;;;;;;;15.53;44.89;100744.27;1712832;82;21767;-76
2021/11/07 07:23:53;;;;;;;15.85;10.65;;;;;;;16.02;43.76;100739.70;1712276;82;21506;-75
2021/11/07 07:33:48;;;;;;;13.22;7.33;;;;;;;15.85;44.34;100716.65;1729570;80;21708;-75
2021/11/07 07:36:08;;;;;;;12.53;8.00;;;;;;;15.77;43.67;100720.14;1733218;82;21599;-76
2021/11/07 07:38:34;;;;;;;11.85;7.30;;;;;;;15.88;43.43;100716.96;1730956;82;21134;-74
2021/11/07 07:41:01;;;;;;;16.65;8.68;;;;;;;16.12;41.90;100706.88;1749199;82;20954;-74
2021/11/07 07:43:30;;;;;;;11.48;8.03;;;;;;;16.40;42.19;100703.66;1743758;82;21153;-74
2021/11/07 07:46:02;;;;;;;11.57;7.47;;;;;;;16.55;40.81;100691.37;1723923;82;21057;-74
2021/11/07 07:48:26;;;;;;;11.90;7.65;;;;;;;16.77;40.31;100693.73;1717681;83;21064;-75
2021/11/07 07:50:52;;;;;;;13.15;7.97;;;;;;;17.17;39.92;100684.95;1717948;83;21560;-75
2021/11/07 07:53:22;;;;;;;12.80;7.75;;;;;;;17.63;38.21;100681.01;1730231;82;21004;-76
2021/11/07 07:55:47;;;;;;;11.48;7.35;;;;;;;17.79;37.45;100689.83;1721767;82;21567;-74
2021/11/07 07:58:13;;;;;;;12.47;7.97;;;;;;;17.60;37.59;100693.18;1724116;82;21065;-75
2021/11/07 08:00:41;;;;;;;13.38;7.80;;;;;;;17.65;37.81;100699.58;1738646;82;21057;-75
2021/11/07 08:03:08;;;;;;;11.78;7.67;;;;;;;18.03;37.56;100697.35;1721915;82;21061;-76
2021/11/07 08:05:34;;;;;;;12.85;7.90;;;;;;;18.51;37.16;100694.02;1747657;82;21042;-74
2021/11/07 08:08:01;;;;;;;12.90;8.30;;;;;;;19.07;36.77;100686.12;1718560;82;21815;-75
2021/11/07 08:10:28;;;;;;;12.55;8.63;;;;;;;19.49;36.49;100694.52;1717645;83;21547;-75
2021/11/07 08:12:55;;;;;;;14.90;7.45;;;;;;;19.49;35.29;100685.17;1717850;83;21505;-72
2021/11/07 08:15:21;;;;;;;9.30;6.58;;;;;;;19.34;34.80;100684.83;1732014;82;21221;-76
2021/11/07 08:17:48;;;;;;;11.05;7.85;;;;;;;19.37;35.21;100681.98;1747938;82;21060;-75
2021/11/07 08:20:16;;;;;;;15.65;8.10;;;;;;;19.08;36.63;100684.70;1747851;82;21509;-75
2021/11/07 08:22:44;;;;;;;13.78;7.75;;;;;;;18.87;35.88;100680.73;1747440;82;21057;-76
2021/11/07 08:25:15;;;;;;;12.63;7.92;;;;;;;18.58;35.80;100672.69;1723307;80;21044;-75
2021/11/07 08:27:41;;;;;;;12.25;7.10;;;;;;;18.22;37.14;100666.00;1717116;82;21633;-76
2021/11/07 08:30:12;;;;;;;13.13;7.78;;;;;;;17.76;36.75;100670.03;1717319;82;21018;-76
2021/11/07 08:32:38;;;;;;;10.43;7.40;;;;;;;17.37;37.58;100675.38;1719601;82;21101;-76
2021/11/07 08:35:06;;;;;;;14.53;7.72;;;;;;;17.59;37.16;100667.48;1720032;82;21015;-75
2021/11/07 08:37:43;;;;;;;11.48;7.42;;;;;;;17.94;36.51;100661.92;1711763;82;21046;-77
2021/11/07 08:40:08;;;;;;;12.43;8.08;;;;;;;18.16;35.98;100662.84;1712878;82;21054;-78
2021/11/07 08:42:46;;;;;;;11.63;7.42;;;;;;;18.34;35.89;100668.39;1709644;82;22158;-75
2021/11/07 09:04:26;;;;;;;11.05;7.05;;;;;;;19.27;34.53;100624.77;1721519;82;21026;-75
2021/11/07 09:09:38;;;;;;;9.73;7.28;;;;;;;18.90;35.91;100608.47;1715130;82;21102;-76
2021/11/07 09:12:05;;;;;;;10.23;7.50;;;;;;;18.41;35.87;100607.55;1721291;82;21607;-75
2021/11/07 09:14:35;;;;;;;15.25;7.67;;;;;;;18.09;35.75;100610.37;1716363;82;21053;-77
2021/11/07 09:17:07;;;;;;;15.15;8.30;;;;;;;17.97;36.75;100607.13;1706318;82;21487;-76
2021/11/07 09:19:36;;;;;;;16.07;8.30;;;;;;;18.17;36.87;100604.57;1709197;82;21572;-76
2021/11/07 09:24:44;;;;;;;11.68;8.08;;;;;;;18.12;36.17;100596.85;1722099;82;21148;-74
2021/11/07 09:27:12;;;;;;;13.62;8.18;;;;;;;17.80;36.24;100589.44;1710293;82;21038;-76
2021/11/07 09:29:46;;;;;;;12.45;8.28;;;;;;;16.96;37.48;100592.55;1707408;82;21069;-76
2021/11/07 09:32:23;;;;;;;12.88;7.70;;;;;;;16.42;39.78;100595.45;1709955;83;21108;-76
2021/11/07 09:34:54;;;;;;;13.98;8.20;;;;;;;16.17;40.28;100590.58;1726342;80;21067;-74
2021/11/07 09:37:30;;;;;;;15.03;7.72;;;;;;;16.18;41.52;100588.81;1665185;85;21061;-74
2021/11/07 09:40:00;;;;;;;14.78;8.05;;;;;;;16.22;41.15;100585.02;1673034;85;21078;-76
2021/11/07 09:42:38;;;;;;;15.00;8.20;;;;;;;16.00;41.16;100585.32;1721480;81;21148;-77
2021/11/07 09:45:10;;;;;;;15.72;8.90;;;;;;;15.78;40.83;100584.23;1724041;82;21050;-78
2021/11/07 09:47:33;;;;;;;19.30;9.20;;;;;;;15.69;41.71;100579.77;1731112;82;21037;-76
2021/11/07 09:50:00;;;;;;;17.48;9.03;;;;;;;15.78;40.83;100584.23;1735798;82;21276;-75
2021/11/07 09:52:33;;;;;;;16.15;8.68;;;;;;;15.52;41.32;100582.41;1724755;82;21055;-76
2021/11/07 09:54:59;;;;;;;16.05;8.15;;;;;;;15.59;41.71;100570.53;1720205;82;21057;-77
2021/11/07 09:57:24;;;;;;;12.33;7.90;;;;;;;16.04;41.32;100562.50;1715593;82;21058;-76
2021/11/07 09:59:56;;;;;;;14.55;8.80;;;;;;;16.61;39.82;100557.22;1736152;81;21383;-77
2021/11/07 10:02:25;;;;;;;13.40;7.90;;;;;;;16.82;38.77;100542.78;1728744;82;21139;-77
2021/11/07 10:04:53;;;;;;;15.93;7.67;;;;;;;16.79;38.87;100538.95;1736657;82;20998;-78
2021/11/07 10:07:25;;;;;;;11.55;7.50;;;;;;;16.49;40.33;100533.03;1733434;81;21078;-78
2021/11/07 10:09:59;;;;;;;15.63;8.38;;;;;;;16.33;38.76;100524.19;1733726;82;21091;-78
2021/11/07 10:12:45;;;;;;;11.78;7.75;;;;;;;16.84;38.38;100512.09;1722422;82;21053;-78
2021/11/07 10:15:23;;;;;;;13.65;7.58;;;;;;;17.52;37.57;100508.53;1733362;82;21128;-76
2021/11/07 10:17:55;;;;;;;15.80;8.48;;;;;;;18.21;36.17;100501.66;1665925;85;21121;-76
2021/11/07 10:20:28;;;;;;;10.05;6.45;;;;;;;18.71;34.76;100495.87;1687042;84;21148;-73
2021/11/07 10:23:06;;;;;;;9.43;5.75;;;;;;;18.64;34.44;100496.26;1673336;84;21058;-75
2021/11/07 10:25:37;;;;;;;12.95;7.10;;;;;;;18.23;34.21;100495.76;1677863;84;21031;-78
2021/11/07 10:28:24;;;;;;;10.05;6.28;;;;;;;17.34;35.49;100494.50;1739438;82;21147;-78
2021/11/07 10:31:21;;;;;;;12.95;6.30;;;;;;;16.88;36.96;100497.20;1662570;85;21049;-77
2021/11/07 10:37:34;;;;;;;15.83;7.85;;;;;;;17.06;36.54;100486.45;1681570;84;21675;-78
2021/11/07 10:53:30;;;;;;;20.95;8.08;;;;;;;18.23;35.26;100486.42;1723573;82;21074;-78
2021/11/07 10:56:02;;;;;;;17.95;9.10;;;;;;;17.88;35.43;100482.47;1721812;82;21800;-78
2021/11/07 10:58:31;;;;;;;17.80;9.58;;;;;;;16.88;36.83;100484.37;1665711;85;21740;-78
2021/11/07 11:01:01;;;;;;;14.47;7.50;;;;;;;15.85;39.01;100491.34;1664466;85;21288;-76
2021/11/07 11:03:28;;;;;;;14.68;8.18;;;;;;;15.34;39.86;100489.13;1663201;85;21100;-78
2021/11/07 11:06:04;;;;;;;24.05;10.30;;;;;;;15.03;40.16;100480.06;1634034;86;21120;-78
2021/11/07 11:08:31;;;;;;;;;;;;;;;14.79;40.94;100473.73;1655444;86;21759;-78
2021/11/07 11:11:13;;;;;;;21.20;8.80;;;;;;;14.70;41.38;100466.22;1653525;86;20229;-78
2021/11/07 11:14:08;;;;;;;20.10;9.20;;;;;;;14.79;41.63;100460.47;1691544;84;21043;-79
2021/11/07 11:19:38;;;;;;;12.50;7.97;;;;;;;14.80;40.32;100448.91;1704229;84;21043;-80
2021/11/07 11:25:23;;;;;;;14.75;7.15;;;;;;;14.85;42.73;100446.89;1732720;82;21066;-77
2021/11/07 11:36:05;;;;;;;20.08;9.35;;;;;;;15.50;39.49;100444.92;1729092;82;21114;-80
2021/11/07 11:43:32;;;;;;;20.45;8.85;;;;;;;14.55;43.69;100424.55;1712698;83;21067;-79
2021/11/07 11:46:01;;;;;;;28.10;11.38;;;;;;;14.03;43.67;100427.84;1711930;83;21035;-78
2021/11/07 11:54:01;;;;;;;21.82;10.40;;;;;;;12.47;47.02;100406.37;1715237;83;26507;-78
2021/11/07 11:59:00;;;;;;;19.50;9.98;;;;;;;12.13;48.12;100397.17;1714248;83;21105;-77
2021/11/07 12:01:29;;;;;;;;;;;;;;;11.99;49.97;100394.22;1732835;82;21530;-81
2021/11/07 12:12:20;;;;;;;25.43;13.55;;;;;;;11.84;53.35;100379.31;1725845;82;21524;-78
2021/11/07 12:15:14;;;;;;;26.33;15.18;;;;;;;11.83;52.34;100386.84;1719024;82;21352;-78
2021/11/07 12:17:39;;;;;;;23.55;12.93;;;;;;;11.82;52.05;100386.42;1740341;82;21081;-78
2021/11/07 12:20:29;;;;;;;27.20;14.15;;;;;;;11.78;52.43;100387.92;1733402;82;21580;-76
2021/11/07 12:23:27;;;;;;;23.30;12.20;;;;;;;11.81;54.34;100382.09;1677060;85;21472;-77
2021/11/07 12:25:52;;;;;;;18.62;11.75;;;;;;;11.73;52.96;100370.95;1678399;84;21024;-77
2021/11/07 12:28:21;;;;;;;23.80;13.05;;;;;;;11.46;52.50;100372.40;1682359;84;21110;-78
2021/11/07 12:31:03;;;;;;;19.65;12.07;;;;;;;11.28;54.09;100366.48;1683497;83;21846;-80
2021/11/07 12:34:12;;;;;;;27.60;12.80;;;;;;;11.12;53.50;100367.02;1699822;83;21095;-81
2021/11/07 12:42:18;;;;;;;20.80;12.77;;;;;;;10.74;56.76;100347.72;1681664;83;21832;-84
2021/11/07 12:44:49;;;;;;;26.48;12.35;;;;;;;10.64;55.72;100340.14;1705788;83;21060;-83
2021/11/07 12:47:17;;;;;;;21.68;11.80;;;;;;;10.58;55.91;100339.48;1664341;86;21058;-85
2021/11/07 12:50:06;;;;;;;23.12;11.73;;;;;;;10.57;56.42;100332.05;1692212;84;20997;-83
2021/11/07 12:52:53;;;;;;;26.95;12.63;;;;;;;10.50;56.38;100323.48;1688753;84;21111;-80
2021/11/07 12:55:25;;;;;;;26.25;11.25;;;;;;;10.36;57.29;100320.45;1691547;84;22351;-83
2021/11/07 12:57:52;;;;;;;20.50;12.18;;;;;;;10.24;59.24;100322.16;1663439;86;21667;-84
2021/11/07 13:00:19;;;;;;;30.32;15.23;;;;;;;10.22;60.41;100327.92;1691714;84;21059;-84
2021/11/07 13:02:47;;;;;;;28.07;13.32;;;;;;;10.21;61.28;100337.56;1666069;84;21040;-83
2021/11/07 13:05:32;;;;;;;19.65;11.20;;;;;;;10.17;61.53;100325.86;1706183;83;21114;-81
2021/11/07 13:08:05;;;;;;;29.18;16.30;;;;;;;10.08;59.47;100332.31;1667313;84;21138;-81
2021/11/07 13:10:44;;;;;;;28.15;13.98;;;;;;;10.00;60.02;100322.47;1674106;84;21090;-82
2021/11/07 13:26:03;;;;;;;29.07;15.95;;;;;;;9.78;63.82;100312.63;1680879;84;21118;-77
2021/11/07 13:31:17;;;;;;;27.02;14.63;;;;;;;9.60;63.11;100307.93;1696032;83;21085;-73
2021/11/07 13:33:34;;;;;;;33.13;14.98;;;;;;;9.53;64.36;100302.45;1684263;84;21616;-74
2021/11/07 13:36:00;;;;;;;22.58;13.95;;;;;;;9.47;64.71;100302.63;1676057;84;21117;-72
2021/11/07 13:38:30;;;;;;;23.57;14.43;;;;;;;9.37;65.05;100304.20;1677931;84;21111;-73
2021/11/07 13:40:55;;;;;;;24.70;13.15;;;;;;;9.32;65.58;100301.32;1674774;84;21073;-73
2021/11/07 13:44:59;;;;;;;29.23;16.95;;;;;;;9.25;65.99;100304.58;1785086;78;28118;-72
2021/11/07 13:47:31;;;;;;;26.00;14.85;;;;;;;9.15;66.86;100297.38;1754226;80;21072;-73